createdAt,value
2023-03-05T00:00:26.377Z,98482.16
2023-03-05T00:01:35.642Z,98484.00
2023-03-05T00:02:38.489Z,98486.67
2023-03-05T00:03:41.261Z,98489.50
2023-03-05T00:04:44.066Z,98485.81
2023-03-05T00:05:46.751Z,98484.98
2023-03-05T00:06:49.916Z,98485.81
2023-03-05T00:07:52.606Z,98487.51
2023-03-05T00:08:56.329Z,98484.00
2023-03-05T00:10:00.685Z,98484.00
2023-03-05T00:11:05.695Z,98494.70
2023-03-05T00:12:08.934Z,98501.04
2023-03-05T00:13:12.709Z,98503.72
2023-03-05T00:14:15.333Z,98500.20
2023-03-05T00:15:18.296Z,98494.85
2023-03-05T00:16:21.597Z,98494.85
2023-03-05T00:17:24.458Z,98504.55
2023-03-05T00:18:27.161Z,98513.45
2023-03-05T00:19:30.038Z,98508.09
2023-03-05T00:20:35.525Z,98509.07
2023-03-05T00:21:39.899Z,98497.39
2023-03-05T00:22:42.932Z,98509.76
2023-03-05T00:23:45.541Z,98520.47
2023-03-05T00:24:51.486Z,98509.76
2023-03-05T00:25:54.283Z,98502.59
2023-03-05T00:26:57.036Z,98512.36
2023-03-05T00:27:59.543Z,98505.16
2023-03-05T00:29:03.496Z,98510.52
2023-03-05T00:30:07.954Z,98510.52
2023-03-05T00:31:12.195Z,98517.72
2023-03-05T00:32:14.889Z,98521.22
2023-03-05T00:33:17.858Z,98511.46
2023-03-05T00:34:20.519Z,98519.38
2023-03-05T00:35:23.370Z,98518.55
2023-03-05T00:36:26.065Z,98525.59
2023-03-05T00:37:28.525Z,98523.76
2023-03-05T00:38:31.001Z,98522.92
2023-03-05T00:39:33.526Z,98516.56
2023-03-05T00:41:50.852Z,98529.95
2023-03-05T00:42:54.096Z,98521.08
2023-03-05T00:43:56.769Z,98519.38
2023-03-05T00:44:59.501Z,98530.09
2023-03-05T00:46:03.507Z,98527.41
2023-03-05T00:47:07.682Z,98523.76
2023-03-05T00:48:11.941Z,98530.95
2023-03-05T00:49:14.697Z,98528.28
2023-03-05T00:50:18.276Z,98530.95
2023-03-05T00:51:21.316Z,98523.06
2023-03-05T00:52:24.134Z,98535.45
2023-03-05T00:53:26.964Z,98531.94
2023-03-05T00:54:30.580Z,98527.52
2023-03-05T00:55:35.216Z,98534.72
2023-03-05T00:56:37.975Z,98530.20
2023-03-05T00:57:40.909Z,98534.61
2023-03-05T00:58:43.509Z,98535.45
2023-03-05T00:59:47.230Z,98531.79
2023-03-05T01:00:50.138Z,98533.48
2023-03-05T01:01:53.123Z,98544.20
2023-03-05T01:02:55.917Z,98544.20
2023-03-05T01:04:01.462Z,98542.50
2023-03-05T01:05:04.796Z,98546.16
2023-03-05T01:06:09.629Z,98547.85
2023-03-05T01:07:13.436Z,98545.31
2023-03-05T01:08:16.372Z,98555.19
2023-03-05T01:09:19.004Z,98547.16
2023-03-05T01:10:23.370Z,98547.16
2023-03-05T01:11:25.993Z,98555.19
2023-03-05T01:12:28.539Z,98550.78
2023-03-05T01:13:31.783Z,98549.84
2023-03-05T01:14:36.329Z,98557.87
2023-03-05T01:15:39.033Z,98547.16
2023-03-05T01:16:42.476Z,98557.87
2023-03-05T01:17:46.198Z,98556.03
2023-03-05T01:18:49.138Z,98551.61
2023-03-05T01:19:52.240Z,98551.61
2023-03-05T01:20:57.022Z,98551.61
2023-03-05T01:21:59.536Z,98550.78
2023-03-05T01:23:02.917Z,98558.70
2023-03-05T01:24:06.413Z,98554.19
2023-03-05T01:25:09.373Z,98556.03
2023-03-05T01:26:13.009Z,98561.23
2023-03-05T01:27:16.413Z,98558.56
2023-03-05T01:28:18.953Z,98553.20
2023-03-05T01:29:21.388Z,98562.22
2023-03-05T01:30:24.476Z,98555.05
2023-03-05T01:31:27.185Z,98557.73
2023-03-05T01:32:29.749Z,98563.08
2023-03-05T01:33:32.410Z,98558.56
2023-03-05T01:34:37.177Z,98556.72
2023-03-05T01:35:41.218Z,98559.39
2023-03-05T01:36:43.975Z,98555.05
2023-03-05T01:37:47.200Z,98555.88
2023-03-05T01:38:50.612Z,98556.86
2023-03-05T01:39:56.240Z,98552.37
2023-03-05T01:40:59.480Z,98550.67
2023-03-05T01:42:02.965Z,98564.89
2023-03-05T01:43:12.765Z,98555.19
2023-03-05T01:45:38.125Z,98557.02
2023-03-05T01:46:42.002Z,98571.33
2023-03-05T01:47:44.784Z,98571.33
2023-03-05T01:48:51.247Z,98575.85
2023-03-05T01:49:53.918Z,98566.98
2023-03-05T01:50:56.581Z,98565.28
2023-03-05T01:52:11.168Z,98563.45
2023-03-05T01:53:14.783Z,98559.80
2023-03-05T01:54:18.284Z,98559.80
2023-03-05T01:55:23.270Z,98572.34
2023-03-05T01:56:27.824Z,98566.13
2023-03-05T01:57:36.159Z,98558.95
2023-03-05T01:58:39.322Z,98559.80
2023-03-05T01:59:42.973Z,98571.48
2023-03-05T02:00:47.691Z,98566.13
2023-03-05T02:01:51.742Z,98563.45
2023-03-05T02:02:54.710Z,98569.66
2023-03-05T02:03:57.570Z,98575.02
2023-03-05T02:05:06.048Z,98566.13
2023-03-05T02:06:09.590Z,98580.38
2023-03-05T02:07:12.688Z,98566.98
2023-03-05T02:08:17.309Z,98568.80
2023-03-05T02:09:23.491Z,98574.02
2023-03-05T02:11:42.793Z,98565.91
2023-03-05T02:12:45.265Z,98582.91
2023-03-05T02:13:47.720Z,98575.71
2023-03-05T02:14:53.724Z,98583.74
2023-03-05T02:15:57.714Z,98573.94
2023-03-05T02:17:01.202Z,98574.02
2023-03-05T02:18:04.681Z,98563.30
2023-03-05T02:19:10.247Z,98574.16
2023-03-05T02:21:39.264Z,98565.19
2023-03-05T02:22:41.850Z,98569.80
2023-03-05T02:23:44.945Z,98577.84
2023-03-05T02:24:47.525Z,98579.65
2023-03-05T02:25:50.399Z,98576.14
2023-03-05T02:26:53.134Z,98592.20
2023-03-05T02:28:02.038Z,98577.11
2023-03-05T02:29:04.965Z,98582.47
2023-03-05T02:30:09.051Z,98593.17
2023-03-05T02:31:18.851Z,98587.96
2023-03-05T02:32:21.699Z,98586.12
2023-03-05T02:33:24.528Z,98578.23
2023-03-05T02:34:27.596Z,98586.26
2023-03-05T02:35:31.009Z,98592.63
2023-03-05T02:36:34.393Z,98586.40
2023-03-05T02:37:37.071Z,98595.41
2023-03-05T02:38:40.031Z,98594.43
2023-03-05T02:39:42.557Z,98587.38
2023-03-05T02:40:47.045Z,98583.03
2023-03-05T02:41:49.898Z,98599.92
2023-03-05T02:42:52.562Z,98590.05
2023-03-05T02:43:55.317Z,98594.57
2023-03-05T02:44:58.596Z,98586.54
2023-03-05T02:46:01.951Z,98591.06
2023-03-05T02:47:05.213Z,98588.38
2023-03-05T02:48:08.572Z,98587.52
2023-03-05T02:49:11.713Z,98590.92
2023-03-05T02:50:14.448Z,98590.92
2023-03-05T02:51:18.118Z,98585.56
2023-03-05T02:52:22.727Z,98585.56
2023-03-05T02:53:26.520Z,98592.73
2023-03-05T02:54:29.527Z,98591.89
2023-03-05T02:55:32.234Z,98589.22
2023-03-05T02:56:37.736Z,98590.20
2023-03-05T02:57:41.542Z,98593.73
2023-03-05T02:58:44.479Z,98599.92
2023-03-05T02:59:47.395Z,98595.41
2023-03-05T03:00:50.169Z,98594.57
2023-03-05T03:01:52.646Z,98591.89
2023-03-05T03:02:55.596Z,98597.25
2023-03-05T03:03:59.296Z,98592.63
2023-03-05T03:05:02.057Z,98602.46
2023-03-05T03:06:06.443Z,98596.27
2023-03-05T03:07:10.598Z,98592.73
2023-03-05T03:08:14.536Z,98598.95
2023-03-05T03:09:17.034Z,98598.95
2023-03-05T03:10:19.782Z,98601.77
2023-03-05T03:11:22.303Z,98593.59
2023-03-05T03:12:24.921Z,98595.41
2023-03-05T03:13:27.773Z,98596.27
2023-03-05T03:14:35.250Z,98599.78
2023-03-05T03:15:39.836Z,98596.27
2023-03-05T03:16:42.684Z,98599.92
2023-03-05T03:17:45.830Z,98602.46
2023-03-05T03:18:48.661Z,98597.11
2023-03-05T03:19:51.293Z,98605.14
2023-03-05T03:20:54.459Z,98602.46
2023-03-05T03:21:57.451Z,98604.30
2023-03-05T03:23:00.425Z,98607.81
2023-03-05T03:24:04.328Z,98611.36
2023-03-05T03:25:09.510Z,98611.36
2023-03-05T03:26:12.007Z,98607.67
2023-03-05T03:27:15.572Z,98618.38
2023-03-05T03:28:18.301Z,98619.25
2023-03-05T03:29:21.016Z,98618.38
2023-03-05T03:30:23.733Z,98610.35
2023-03-05T03:31:26.998Z,98614.87
2023-03-05T03:32:30.516Z,98614.87
2023-03-05T03:33:33.228Z,98608.69
2023-03-05T03:34:35.904Z,98617.55
2023-03-05T03:35:38.558Z,98612.20
2023-03-05T03:36:42.765Z,98611.36
2023-03-05T03:37:45.268Z,98615.84
2023-03-05T03:38:48.534Z,98617.41
2023-03-05T03:39:51.627Z,98621.92
2023-03-05T03:40:54.429Z,98619.39
2023-03-05T03:41:57.167Z,98607.81
2023-03-05T03:42:59.715Z,98613.03
2023-03-05T03:44:05.226Z,98616.57
2023-03-05T03:45:08.744Z,98613.03
2023-03-05T03:46:12.991Z,98617.55
2023-03-05T03:47:16.386Z,98617.55
2023-03-05T03:48:18.969Z,98614.87
2023-03-05T03:49:23.424Z,98617.55
2023-03-05T03:50:27.383Z,98621.06
2023-03-05T03:51:31.163Z,98621.06
2023-03-05T03:52:34.941Z,98621.92
2023-03-05T03:53:37.572Z,98622.06
2023-03-05T03:54:40.391Z,98632.63
2023-03-05T03:55:43.394Z,98628.25
2023-03-05T03:56:46.117Z,98620.23
2023-03-05T03:57:49.141Z,98625.58
2023-03-05T03:58:53.213Z,98626.55
2023-03-05T03:59:56.187Z,98626.41
2023-03-05T04:00:58.809Z,98630.93
2023-03-05T04:02:01.306Z,98616.27
2023-03-05T04:03:04.531Z,98616.27
2023-03-05T04:04:07.329Z,98626.55
2023-03-05T04:05:10.623Z,98630.09
2023-03-05T04:06:13.642Z,98625.72
2023-03-05T04:07:17.233Z,98629.23
2023-03-05T04:08:20.377Z,98632.77
2023-03-05T04:09:22.940Z,98627.42
2023-03-05T04:10:26.243Z,98639.94
2023-03-05T04:11:28.726Z,98629.23
2023-03-05T04:12:31.258Z,98629.23
2023-03-05T04:13:33.492Z,98632.05
2023-03-05T04:14:36.020Z,98634.72
2023-03-05T04:15:38.559Z,98634.72
2023-03-05T04:16:43.883Z,98635.56
2023-03-05T04:17:46.665Z,98624.02
2023-03-05T04:18:50.519Z,98631.21
2023-03-05T04:19:53.654Z,98638.23
2023-03-05T04:20:56.370Z,98630.20
2023-03-05T04:22:00.025Z,98646.27
2023-03-05T04:23:04.230Z,98628.53
2023-03-05T04:24:07.753Z,98641.92
2023-03-05T04:25:10.525Z,98644.59
2023-03-05T04:26:13.282Z,98644.45
2023-03-05T04:27:15.855Z,98639.24
2023-03-05T04:28:18.387Z,98646.41
2023-03-05T04:29:21.438Z,98644.59
2023-03-05T04:30:23.917Z,98654.44
2023-03-05T04:31:26.820Z,98644.59
2023-03-05T04:32:30.337Z,98657.84
2023-03-05T04:33:33.489Z,98638.20
2023-03-05T04:34:38.970Z,98653.45
2023-03-05T04:35:41.903Z,98655.30
2023-03-05T04:36:44.704Z,98651.76
2023-03-05T04:37:47.370Z,98659.78
2023-03-05T04:38:49.942Z,98661.63
2023-03-05T04:39:52.700Z,98658.95
2023-03-05T04:40:55.724Z,98662.47
2023-03-05T04:41:58.209Z,98671.36
2023-03-05T04:43:00.828Z,98661.63
2023-03-05T04:44:04.508Z,98660.66
2023-03-05T04:45:10.169Z,98660.66
2023-03-05T04:46:12.731Z,98662.47
2023-03-05T04:47:15.583Z,98667.81
2023-03-05T04:48:19.218Z,98668.69
2023-03-05T04:49:22.303Z,98662.47
2023-03-05T04:50:25.536Z,98662.47
2023-03-05T04:51:28.143Z,98662.47
2023-03-05T04:52:30.863Z,98659.78
2023-03-05T04:53:33.775Z,98659.78
2023-03-05T04:54:36.323Z,98652.17
2023-03-05T04:55:38.793Z,98652.17
2023-03-05T04:56:42.454Z,98668.82
2023-03-05T04:57:45.025Z,98664.30
2023-03-05T04:58:48.272Z,98672.33
2023-03-05T04:59:51.278Z,98661.63
2023-03-05T05:00:53.957Z,98666.98
2023-03-05T05:01:57.231Z,98668.69
2023-03-05T05:03:00.012Z,98679.39
2023-03-05T05:04:02.981Z,98669.52
2023-03-05T05:05:06.189Z,98684.75
2023-03-05T05:06:09.560Z,98676.72
2023-03-05T05:07:12.371Z,98670.50
2023-03-05T05:08:16.999Z,98677.55
2023-03-05T05:09:19.628Z,98675.84
2023-03-05T05:10:22.381Z,98677.55
2023-03-05T05:11:25.077Z,98686.55
2023-03-05T05:12:30.530Z,98687.66
2023-03-05T05:13:33.841Z,98670.91
2023-03-05T05:14:37.387Z,98681.75
2023-03-05T05:15:41.219Z,98674.70
2023-03-05T05:16:43.828Z,98682.73
2023-03-05T05:17:46.609Z,98674.38
2023-03-05T05:18:49.217Z,98674.38
2023-03-05T05:19:51.660Z,98688.08
2023-03-05T05:21:57.743Z,98679.22
2023-03-05T05:23:00.493Z,98692.59
2023-03-05T05:24:04.073Z,98675.67
2023-03-05T05:25:07.460Z,98682.73
2023-03-05T05:26:12.282Z,98685.41
2023-03-05T05:27:15.710Z,98675.42
2023-03-05T05:28:18.478Z,98675.42
2023-03-05T05:30:24.782Z,98671.88
2023-03-05T05:31:27.416Z,98680.05
2023-03-05T05:36:44.483Z,98681.61
2023-03-05T05:37:47.142Z,98681.61
2023-03-05T05:38:52.021Z,98681.61
2023-03-05T05:39:54.551Z,98687.80
2023-03-05T05:41:08.619Z,98669.20
2023-03-05T05:42:11.614Z,98683.45
2023-03-05T05:44:16.370Z,98676.54
2023-03-05T05:45:19.102Z,98684.57
2023-03-05T05:46:22.246Z,98676.54
2023-03-05T05:47:25.911Z,98677.52
2023-03-05T05:48:29.816Z,98677.52
2023-03-05T05:49:32.260Z,98673.86
2023-03-05T05:50:35.136Z,98686.38
2023-03-05T05:51:37.820Z,98682.86
2023-03-05T05:52:41.155Z,98676.67
2023-03-05T05:53:43.973Z,98705.11
2023-03-05T05:54:46.451Z,98697.08
2023-03-05T05:55:50.107Z,98704.28
2023-03-05T05:56:53.581Z,98698.92
2023-03-05T05:57:56.310Z,98701.59
2023-03-05T05:58:59.304Z,98701.59
2023-03-05T06:00:03.086Z,98704.28
2023-03-05T06:01:24.945Z,98704.28
2023-03-05T06:02:27.544Z,98701.59
2023-03-05T06:03:32.339Z,98711.47
2023-03-05T06:04:35.543Z,98701.59
2023-03-05T06:05:38.045Z,98706.12
2023-03-05T06:06:41.004Z,98708.80
2023-03-05T06:07:44.877Z,98706.12
2023-03-05T06:08:47.626Z,98709.62
2023-03-05T06:09:50.316Z,98711.33
2023-03-05T06:10:55.845Z,98709.49
2023-03-05T06:11:59.775Z,98709.49
2023-03-05T06:14:06.921Z,98720.20
2023-03-05T06:15:10.608Z,98723.60
2023-03-05T06:17:31.056Z,98721.80
2023-03-05T06:18:35.018Z,98730.77
2023-03-05T06:19:37.758Z,98720.06
2023-03-05T06:20:41.700Z,98719.23
2023-03-05T06:21:44.465Z,98731.63
2023-03-05T06:22:47.432Z,98727.25
2023-03-05T06:23:50.041Z,98726.28
2023-03-05T06:24:53.746Z,98726.14
2023-03-05T06:26:00.640Z,98729.66
2023-03-05T06:27:03.988Z,98732.47
2023-03-05T06:28:06.611Z,98726.14
2023-03-05T06:29:09.076Z,98727.81
2023-03-05T06:30:12.909Z,98727.81
2023-03-05T06:31:17.366Z,98721.63
2023-03-05T06:32:20.861Z,98736.85
2023-03-05T06:33:24.605Z,98735.84
2023-03-05T06:34:28.465Z,98734.03
2023-03-05T06:35:32.110Z,98738.52
2023-03-05T06:36:36.563Z,98741.20
2023-03-05T06:37:38.965Z,98737.55
2023-03-05T06:38:42.788Z,98742.91
2023-03-05T06:39:45.419Z,98739.39
2023-03-05T06:40:48.849Z,98753.61
2023-03-05T06:41:51.659Z,98737.55
2023-03-05T06:42:54.317Z,98744.61
2023-03-05T06:43:59.396Z,98736.58
2023-03-05T06:45:02.087Z,98749.82
2023-03-05T06:46:07.718Z,98757.02
2023-03-05T06:47:10.535Z,98745.44
2023-03-05T06:48:13.288Z,98748.98
2023-03-05T06:49:15.894Z,98745.44
2023-03-05T06:50:20.374Z,98749.82
2023-03-05T06:51:33.612Z,98747.98
2023-03-05T06:52:38.027Z,98747.14
2023-03-05T06:53:41.858Z,98748.84
2023-03-05T06:54:45.598Z,98742.63
2023-03-05T06:55:49.106Z,98738.28
2023-03-05T06:56:52.253Z,98737.27
2023-03-05T06:57:55.529Z,98744.47
2023-03-05T06:58:58.643Z,98748.98
2023-03-05T07:00:02.210Z,98747.98
2023-03-05T07:01:06.684Z,98744.33
2023-03-05T07:02:10.885Z,98748.84
2023-03-05T07:03:14.974Z,98753.34
2023-03-05T07:04:17.698Z,98751.53
2023-03-05T07:05:20.170Z,98749.69
2023-03-05T07:06:23.994Z,98753.34
2023-03-05T07:07:27.578Z,98747.88
2023-03-05T07:08:31.655Z,98752.36
2023-03-05T07:09:34.584Z,98745.20
2023-03-05T07:10:41.822Z,98753.23
2023-03-05T07:11:45.190Z,98760.39
2023-03-05T07:12:47.813Z,98752.36
2023-03-05T07:13:50.888Z,98753.61
2023-03-05T07:14:53.719Z,98753.61
2023-03-05T07:15:57.477Z,98749.69
2023-03-05T07:17:00.235Z,98763.80
2023-03-05T07:18:04.105Z,98760.25
2023-03-05T07:19:08.576Z,98760.25
2023-03-05T07:20:14.305Z,98759.42
2023-03-05T07:21:19.145Z,98765.61
2023-03-05T07:22:21.931Z,98767.31
2023-03-05T07:23:24.508Z,98767.45
2023-03-05T07:24:28.908Z,98774.64
2023-03-05T07:25:31.505Z,98774.64
2023-03-05T07:26:34.141Z,98775.48
2023-03-05T07:27:38.356Z,98771.97
2023-03-05T07:28:42.249Z,98773.64
2023-03-05T07:29:45.849Z,98765.61
2023-03-05T07:30:59.749Z,98773.64
2023-03-05T07:32:03.657Z,98776.45
2023-03-05T07:33:06.776Z,98775.48
2023-03-05T07:34:09.534Z,98778.16
2023-03-05T07:35:11.979Z,98767.45
2023-03-05T07:36:15.042Z,98769.29
2023-03-05T07:37:17.678Z,98766.61
2023-03-05T07:38:20.384Z,98777.32
2023-03-05T07:39:23.021Z,98758.59
2023-03-05T07:40:26.784Z,98771.97
2023-03-05T07:41:29.799Z,98771.09
2023-03-05T07:42:33.142Z,98777.19
2023-03-05T07:43:38.877Z,98767.45
2023-03-05T07:44:41.770Z,98776.18
2023-03-05T07:45:45.093Z,98768.15
2023-03-05T07:46:48.385Z,98780.56
2023-03-05T07:47:52.649Z,98769.85
2023-03-05T07:48:55.752Z,98769.02
2023-03-05T07:49:58.464Z,98775.20
2023-03-05T07:52:19.584Z,98793.89
2023-03-05T07:53:25.632Z,98781.43
2023-03-05T07:54:36.594Z,98770.83
2023-03-05T07:55:43.482Z,98781.53
2023-03-05T07:56:46.146Z,98782.54
2023-03-05T07:57:50.638Z,98780.23
2023-03-05T07:58:53.681Z,98780.23
2023-03-05T07:59:57.429Z,98782.54
2023-03-05T08:00:59.957Z,98780.70
2023-03-05T08:02:02.426Z,98787.89
2023-03-05T08:03:06.655Z,98782.54
2023-03-05T08:04:11.077Z,98775.20
2023-03-05T08:05:14.068Z,98794.92
2023-03-05T08:06:16.947Z,98786.89
2023-03-05T08:07:19.346Z,98809.31
2023-03-05T08:08:22.886Z,98789.56
2023-03-05T08:09:25.712Z,98789.56
2023-03-05T08:10:29.228Z,98789.56
2023-03-05T08:11:31.958Z,98810.98
2023-03-05T08:12:34.618Z,98786.89
2023-03-05T08:13:37.626Z,98800.27
2023-03-05T08:14:40.782Z,98782.54
2023-03-05T08:15:43.166Z,98785.22
2023-03-05T08:16:48.254Z,98780.84
2023-03-05T08:17:50.430Z,98788.87
2023-03-05T08:18:57.811Z,98788.87
2023-03-05T08:20:03.187Z,98796.06
2023-03-05T08:21:05.984Z,98784.48
2023-03-05T08:22:08.611Z,98793.38
2023-03-05T08:23:10.944Z,98796.06
2023-03-05T08:24:14.244Z,98796.90
2023-03-05T08:25:17.289Z,98792.38
2023-03-05T08:26:21.351Z,98796.06
2023-03-05T08:27:24.011Z,98796.90
2023-03-05T08:28:28.675Z,98801.41
2023-03-05T08:29:32.631Z,98807.61
2023-03-05T08:30:38.844Z,98804.93
2023-03-05T08:31:45.169Z,98796.90
2023-03-05T08:32:49.073Z,98794.08
2023-03-05T08:33:54.051Z,98795.05
2023-03-05T08:34:59.018Z,98805.63
2023-03-05T08:36:02.766Z,98802.95
2023-03-05T08:37:07.776Z,98805.63
2023-03-05T08:38:10.981Z,98798.60
2023-03-05T08:39:13.290Z,98809.31
2023-03-05T08:40:19.212Z,98803.95
2023-03-05T08:41:22.903Z,98803.95
2023-03-05T08:42:25.658Z,98812.82
2023-03-05T08:43:30.655Z,98796.77
2023-03-05T08:44:33.309Z,98798.60
2023-03-05T08:45:35.777Z,98799.44
2023-03-05T08:46:39.613Z,98800.27
2023-03-05T08:47:42.844Z,98799.30
2023-03-05T08:48:45.563Z,98803.69
2023-03-05T08:50:00.449Z,98801.00
2023-03-05T08:51:16.143Z,98803.55
2023-03-05T08:52:20.984Z,98804.38
2023-03-05T08:53:23.835Z,98803.55
2023-03-05T08:54:27.668Z,98804.38
2023-03-05T08:56:50.334Z,98807.03
2023-03-05T08:57:52.920Z,98812.41
2023-03-05T08:58:55.217Z,98810.61
2023-03-05T08:59:57.804Z,98810.61
2023-03-05T09:01:01.596Z,98810.74
2023-03-05T09:02:05.453Z,98819.47
2023-03-05T09:03:08.573Z,98832.86
2023-03-05T09:04:11.157Z,98828.34
2023-03-05T09:05:16.173Z,98811.44
2023-03-05T09:06:19.235Z,98812.28
2023-03-05T09:07:22.212Z,98825.59
2023-03-05T09:08:25.729Z,98812.28
2023-03-05T09:09:34.335Z,98823.86
2023-03-05T09:10:45.995Z,98828.34
2023-03-05T09:11:49.596Z,98825.66
2023-03-05T09:12:51.879Z,98830.19
2023-03-05T09:13:54.296Z,98831.02
2023-03-05T09:14:56.933Z,98824.83
2023-03-05T09:16:01.211Z,98818.64
2023-03-05T09:17:06.458Z,98823.99
2023-03-05T09:18:09.257Z,98827.50
2023-03-05T09:19:12.597Z,98822.16
2023-03-05T09:20:25.226Z,98830.19
2023-03-05T09:21:30.587Z,98822.98
2023-03-05T09:22:34.119Z,98816.80
2023-03-05T09:23:37.542Z,98814.88
2023-03-05T09:24:44.058Z,98817.29
2023-03-05T09:25:48.250Z,98823.20
2023-03-05T09:26:52.555Z,98831.97
2023-03-05T09:27:58.338Z,98829.16
2023-03-05T09:29:03.117Z,98822.83
2023-03-05T09:30:07.664Z,98824.50
2023-03-05T09:31:10.737Z,98812.68
2023-03-05T09:32:13.500Z,98816.36
2023-03-05T09:33:17.754Z,98813.41
2023-03-05T09:34:20.777Z,98832.99
2023-03-05T09:35:23.219Z,98834.70
2023-03-05T09:36:29.385Z,98830.18
2023-03-05T09:37:32.845Z,98828.37
2023-03-05T09:38:37.410Z,98822.01
2023-03-05T09:39:42.168Z,98822.88
2023-03-05T09:40:58.433Z,98843.33
2023-03-05T09:42:18.078Z,98838.81
2023-03-05T09:43:42.770Z,98824.44
2023-03-05T09:44:56.024Z,98835.99
2023-03-05T09:46:02.214Z,98833.31
2023-03-05T09:47:35.098Z,98828.80
2023-03-05T09:48:50.668Z,98817.25
2023-03-05T09:50:25.294Z,98819.92
2023-03-05T09:51:30.350Z,98819.09
2023-03-05T09:52:43.498Z,98822.88
2023-03-05T09:55:16.273Z,98829.11
2023-03-05T09:56:34.071Z,98831.88
2023-03-05T09:57:41.312Z,98824.83
2023-03-05T09:58:56.812Z,98831.88
2023-03-05T10:00:00.802Z,98836.41
2023-03-05T10:01:16.452Z,98836.27
2023-03-05T10:02:23.641Z,98828.23
2023-03-05T10:03:50.833Z,98804.09
2023-03-05T10:06:25.197Z,98835.06
2023-03-05T10:07:30.253Z,98829.80
2023-03-05T10:09:02.345Z,98825.28
2023-03-05T10:10:26.382Z,98818.08
2023-03-05T10:11:57.448Z,98837.70
2023-03-05T10:13:01.336Z,98812.30
2023-03-05T10:14:04.624Z,98803.22
2023-03-05T10:15:15.875Z,98812.25
2023-03-05T10:16:40.643Z,98841.95
2023-03-05T10:19:20.353Z,98821.97
2023-03-05T10:20:32.439Z,98832.20
2023-03-05T10:21:44.601Z,98830.20
2023-03-05T10:23:03.769Z,98818.20
2023-03-05T10:24:19.687Z,98826.73
2023-03-05T10:25:32.472Z,98820.43
2023-03-05T10:26:55.826Z,98821.78
2023-03-05T10:28:00.702Z,98812.92
2023-03-05T10:29:19.259Z,98810.97
2023-03-05T10:30:45.633Z,98811.70
2023-03-05T10:32:01.508Z,98813.16
2023-03-05T10:33:13.812Z,98807.41
2023-03-05T10:34:25.783Z,98813.38
2023-03-05T10:36:11.052Z,98820.17
2023-03-05T10:37:25.698Z,98813.82
2023-03-05T10:38:34.834Z,98821.00
2023-03-05T10:39:50.227Z,98822.48
2023-03-05T10:40:56.382Z,98807.68
2023-03-05T10:44:10.996Z,98807.23
2023-03-05T10:45:20.944Z,98803.11
2023-03-05T10:46:29.084Z,98828.39
2023-03-05T10:47:36.441Z,98811.12
2023-03-05T10:48:55.162Z,98809.63
2023-03-05T10:49:59.373Z,98819.09
2023-03-05T10:52:30.989Z,98813.61
2023-03-05T10:53:49.212Z,98815.95
2023-03-05T10:54:51.478Z,98815.72
2023-03-05T10:55:55.917Z,98817.16
2023-03-05T10:57:14.077Z,98804.48
2023-03-05T10:58:17.209Z,98813.11
2023-03-05T10:59:20.803Z,98826.22
2023-03-05T11:00:28.427Z,98815.38
2023-03-05T11:01:32.685Z,98823.14
2023-03-05T11:02:35.502Z,98814.01
2023-03-05T11:03:49.761Z,98810.36
2023-03-05T11:04:52.939Z,98824.31
2023-03-05T11:06:00.707Z,98817.84
2023-03-05T11:07:31.897Z,98817.71
2023-03-05T11:08:35.171Z,98817.47
2023-03-05T11:09:37.540Z,98815.36
2023-03-05T11:10:40.551Z,98820.58
2023-03-05T11:11:45.210Z,98807.06
2023-03-05T11:12:48.817Z,98819.47
2023-03-05T11:13:59.421Z,98817.56
2023-03-05T11:15:08.718Z,98820.94
2023-03-05T11:16:23.520Z,98820.67
2023-03-05T11:17:39.250Z,98817.02
2023-03-05T11:18:42.792Z,98820.53
2023-03-05T11:19:45.646Z,98815.07
2023-03-05T11:20:48.321Z,98822.09
2023-03-05T11:22:10.358Z,98817.61
2023-03-05T11:23:19.240Z,98821.13
2023-03-05T11:24:23.371Z,98816.47
2023-03-05T11:25:27.462Z,98810.28
2023-03-05T11:26:30.146Z,98814.66
2023-03-05T11:27:38.117Z,98811.39
2023-03-05T11:28:53.409Z,98812.20
2023-03-05T11:29:56.626Z,98813.28
2023-03-05T11:31:19.162Z,98836.72
2023-03-05T11:32:28.434Z,98832.95
2023-03-05T11:33:34.045Z,98813.88
2023-03-05T11:34:36.546Z,98807.13
2023-03-05T11:35:42.713Z,98811.97
2023-03-05T11:36:55.800Z,98810.66
2023-03-05T11:38:03.449Z,98804.25
2023-03-05T11:39:09.335Z,98800.14
2023-03-05T11:40:20.654Z,98805.84
2023-03-05T11:42:52.434Z,98802.94
2023-03-05T11:43:54.988Z,98814.63
2023-03-05T11:44:57.613Z,98782.47
2023-03-05T11:46:03.703Z,98809.67
2023-03-05T11:47:34.467Z,98809.09
2023-03-05T11:48:39.104Z,98807.51
2023-03-05T11:49:46.105Z,98805.31
2023-03-05T11:50:51.135Z,98805.31
2023-03-05T11:52:05.346Z,98799.97
2023-03-05T11:53:16.721Z,98803.38
2023-03-05T11:54:22.803Z,98832.64
2023-03-05T11:55:28.485Z,98809.56
2023-03-05T11:56:33.246Z,98803.86
2023-03-05T11:57:52.598Z,98793.06
2023-03-05T11:59:19.417Z,98815.67
2023-03-05T12:00:27.142Z,98800.61
2023-03-05T12:01:33.122Z,98815.41
2023-03-05T12:02:37.490Z,98813.45
2023-03-05T12:03:40.523Z,98809.70
2023-03-05T12:04:45.681Z,98813.94
2023-03-05T12:07:06.313Z,98821.09
2023-03-05T12:08:15.295Z,98817.09
2023-03-05T12:09:26.851Z,98817.59
2023-03-05T12:10:30.083Z,98811.05
2023-03-05T12:11:33.184Z,98823.88
2023-03-05T12:13:09.496Z,98814.28
2023-03-05T12:14:25.249Z,98822.66
2023-03-05T12:15:57.670Z,98817.22
2023-03-05T12:18:55.352Z,98809.87
2023-03-05T12:20:09.127Z,98808.42
2023-03-05T12:22:52.240Z,98818.55
2023-03-05T12:24:01.463Z,98816.27
2023-03-05T12:26:58.572Z,98815.23
2023-03-05T12:28:02.020Z,98813.92
2023-03-05T12:29:05.180Z,98826.06
2023-03-05T12:31:38.638Z,98813.67
2023-03-05T12:32:49.360Z,98813.47
2023-03-05T12:33:52.838Z,98814.91
2023-03-05T12:35:15.569Z,98819.03
2023-03-05T12:36:25.811Z,98813.28
2023-03-05T12:37:32.980Z,98830.77
2023-03-05T12:38:38.024Z,98826.16
2023-03-05T12:39:44.015Z,98809.00
2023-03-05T12:40:47.335Z,98815.92
2023-03-05T12:41:50.560Z,98818.33
2023-03-05T12:42:56.677Z,98820.88
2023-03-05T12:44:09.794Z,98809.89
2023-03-05T12:45:16.478Z,98807.95
2023-03-05T12:46:25.142Z,98808.66
2023-03-05T12:48:33.635Z,98805.58
2023-03-05T12:50:52.095Z,98808.77
2023-03-05T12:51:56.672Z,98806.88
2023-03-05T12:53:18.008Z,98797.03
2023-03-05T12:54:25.500Z,98794.36
2023-03-05T12:55:35.737Z,98810.09
2023-03-05T12:56:40.758Z,98814.28
2023-03-05T12:57:45.410Z,98781.23
2023-03-05T12:58:53.972Z,98816.55
2023-03-05T13:02:57.783Z,98803.95
2023-03-05T13:05:30.768Z,98807.72
2023-03-05T13:06:35.397Z,98821.35
2023-03-05T13:07:39.094Z,98800.72
2023-03-05T13:08:42.908Z,98792.70
2023-03-05T13:09:53.983Z,98797.47
2023-03-05T13:11:11.355Z,98818.72
2023-03-05T13:12:14.677Z,98795.11
2023-03-05T13:13:21.490Z,98802.64
2023-03-05T13:14:34.920Z,98801.28
2023-03-05T13:15:37.539Z,98823.05
2023-03-05T13:16:41.511Z,98804.80
2023-03-05T13:17:55.359Z,98803.53
2023-03-05T13:19:01.072Z,98813.00
2023-03-05T13:20:29.320Z,98791.23
2023-03-05T13:21:33.320Z,98789.27
2023-03-05T13:22:38.336Z,98795.92
2023-03-05T13:23:48.423Z,98793.02
2023-03-05T13:25:15.282Z,98797.22
2023-03-05T13:26:19.798Z,98807.70
2023-03-05T13:27:30.644Z,98788.83
2023-03-05T13:28:34.297Z,98801.94
2023-03-05T13:29:37.625Z,98796.45